Malden, MA (02148)

8:36 AM EDT on October 02, 2014 (GMT -0400)
PAPA'S PLACE | Change Station
CLOSE
Current Station
Personal Weather Station
Location: MALDEN, MA
Elevation: 52 ft
Nearby Weather Stations

Elev 52 ft 42.44 °N, 71.05 °W | Updated 13 minutes ago

Rain
Rain
55.4 °F
Feels Like 55.4 °F
N
0.0
Wind Variable Wind from NNE

Today
High -- | Low -- °F
--% Chance of Precip.
Yesterday
High -- | Low -- °F
Precip. -- in
6:42 AM 6:24 PM
First Quarter, 58% visible
Pressure 30.15 in
Visibility 7.0 miles
Clouds Overcast 1100 ft
Dew Point 55 °F
Humidity 98%
Rainfall 0.25 in
Snow Depth Not available.
UV 0 out of 12
Pollen 2.00 out of 12
Air Quality Not available.
Flu Activity Not available.
METAR KBOS 021154Z 02013G21KT 7SM -RA OVC011 13/12 A3015 RMK AO2 SLP208 P0002 60008 70131 T01280122 10133 20122 53004

More Conditions Fewer Conditions

Pressure 30.15 in
Visibility 7.0 miles
Clouds Overcast 1100 ft
Dew Point 55 °F
Humidity 98%
Rainfall 0.25 in
Snow Depth Not available.
UV 0 out of 12
Pollen 2.00 out of 12
Air Quality Not available.
Flu Activity Not available.
METAR KBOS 021154Z 02013G21KT 7SM -RA OVC011 13/12 A3015 RMK AO2 SLP208 P0002 60008 70131 T01280122 10133 20122 53004

More Conditions Fewer Conditions

10-Day Weather Forecast

Almanac

Astronomy

Oct. 02, 2014 Rise Set
Actual Time 6:42 AM EDT 6:24 PM EDT
Civil Twilight 6:14 AM EDT 6:51 PM EDT
Nautical Twilight 5:41 AM EDT 7:24 PM EDT
Astronomical Twilight 5:08 AM EDT 7:57 PM EDT
Moon 2:34 PM EDT No Moon Set
Length of Visible Light 12h 37m
Length of Day
11h 41m
Tomorrow will be 2m 50s shorter.
First Quarter, 58% of the Moon is Illuminated
Today
First Quarter
Oct 8
Full
Oct 15
Last Quarter
Oct 23
New
Oct 30
First Quarter

Today's Extremes

State Highs State Lows

Community

WunderPhotos

Upload Photos

1,758,223 photos uploaded!

WunderBlogs® & News

Nearby

Air Quality

  Air Quality AQ Index Pollutant
Yesterday Good
OZONE
Yesterday Good
PM2.5
Thursday Good
PM2.5
Thursday Good
OZONE

Snow Depth

Station Depth Elevation
No new snow has been reported.

Earthquake Activity

City Distance Mag. Time & Date
No recent earthquake activity has been reported nearby.
Minimum magnitude displayed is 2.5.

Coastal Water Temperatures

Place Temperature
Boston, MA 62.1 °F
Providence, RI 64.9 °F
Fall River, MA 66.9 °F
Conimicut Light, RI 64.9 °F

Nearby Weather Stations